sensor_id;sensor_type;location;lat;lon;timestamp;P1;durP1;ratioP1;P2;durP2;ratioP2
13079;SDS011;6606;49.154;9.280;2022-10-31T00:01:57;19.77;;;10.60;;
13079;SDS011;6606;49.154;9.280;2022-10-31T00:04:24;18.13;;;10.23;;
13079;SDS011;6606;49.154;9.280;2022-10-31T00:06:51;17.00;;;10.23;;
13079;SDS011;6606;49.154;9.280;2022-10-31T00:09:17;15.47;;;9.70;;
13079;SDS011;6606;49.154;9.280;2022-10-31T00:11:44;17.17;;;10.43;;
13079;SDS011;6606;49.154;9.280;2022-10-31T00:14:11;15.13;;;9.60;;
13079;SDS011;6606;49.154;9.280;2022-10-31T00:16:39;19.20;;;10.37;;
13079;SDS011;6606;49.154;9.280;2022-10-31T00:19:06;17.83;;;10.47;;
13079;SDS011;6606;49.154;9.280;2022-10-31T00:21:34;23.10;;;12.40;;
13079;SDS011;6606;49.154;9.280;2022-10-31T00:24:01;16.33;;;10.13;;
13079;SDS011;6606;49.154;9.280;2022-10-31T00:26:28;26.00;;;12.07;;
13079;SDS011;6606;49.154;9.280;2022-10-31T00:28:57;20.07;;;9.53;;
13079;SDS011;6606;49.154;9.280;2022-10-31T00:31:23;16.60;;;9.77;;
13079;SDS011;6606;49.154;9.280;2022-10-31T00:33:52;14.53;;;7.97;;
13079;SDS011;6606;49.154;9.280;2022-10-31T00:36:19;10.07;;;7.07;;
13079;SDS011;6606;49.154;9.280;2022-10-31T00:38:46;9.63;;;6.93;;
13079;SDS011;6606;49.154;9.280;2022-10-31T00:41:14;14.33;;;8.57;;
13079;SDS011;6606;49.154;9.280;2022-10-31T00:43:42;13.00;;;7.33;;
13079;SDS011;6606;49.154;9.280;2022-10-31T00:46:09;13.67;;;7.87;;
13079;SDS011;6606;49.154;9.280;2022-10-31T00:48:36;12.57;;;7.67;;
13079;SDS011;6606;49.154;9.280;2022-10-31T00:51:04;16.27;;;8.43;;
13079;SDS011;6606;49.154;9.280;2022-10-31T00:53:31;12.93;;;7.33;;
13079;SDS011;6606;49.154;9.280;2022-10-31T00:55:58;14.23;;;8.17;;
13079;SDS011;6606;49.154;9.280;2022-10-31T00:58:25;16.60;;;9.73;;
13079;SDS011;6606;49.154;9.280;2022-10-31T01:00:51;58.27;;;17.67;;
13079;SDS011;6606;49.154;9.280;2022-10-31T01:03:21;24.73;;;11.00;;
13079;SDS011;6606;49.154;9.280;2022-10-31T01:05:56;16.20;;;9.43;;
13079;SDS011;6606;49.154;9.280;2022-10-31T01:08:28;19.10;;;10.53;;
13079;SDS011;6606;49.154;9.280;2022-10-31T01:10:59;16.50;;;9.57;;
13079;SDS011;6606;49.154;9.280;2022-10-31T01:13:31;15.37;;;8.47;;
13079;SDS011;6606;49.154;9.280;2022-10-31T01:16:00;14.57;;;8.43;;
13079;SDS011;6606;49.154;9.280;2022-10-31T01:18:28;16.77;;;8.80;;
13079;SDS011;6606;49.154;9.280;2022-10-31T01:21:02;13.23;;;8.17;;
13079;SDS011;6606;49.154;9.280;2022-10-31T01:23:32;16.27;;;8.33;;
13079;SDS011;6606;49.154;9.280;2022-10-31T01:26:00;16.83;;;8.87;;
13079;SDS011;6606;49.154;9.280;2022-10-31T01:28:31;14.73;;;8.27;;
13079;SDS011;6606;49.154;9.280;2022-10-31T01:31:00;22.60;;;10.90;;
13079;SDS011;6606;49.154;9.280;2022-10-31T01:33:27;18.13;;;9.90;;
13079;SDS011;6606;49.154;9.280;2022-10-31T01:35:54;12.77;;;8.00;;
13079;SDS011;6606;49.154;9.280;2022-10-31T01:38:20;18.17;;;9.43;;
13079;SDS011;6606;49.154;9.280;2022-10-31T01:40:50;12.97;;;8.13;;
13079;SDS011;6606;49.154;9.280;2022-10-31T01:43:16;14.07;;;7.87;;
13079;SDS011;6606;49.154;9.280;2022-10-31T01:45:43;12.50;;;7.87;;
13079;SDS011;6606;49.154;9.280;2022-10-31T01:48:17;15.80;;;7.63;;
13079;SDS011;6606;49.154;9.280;2022-10-31T01:50:46;17.67;;;9.70;;
13079;SDS011;6606;49.154;9.280;2022-10-31T01:53:16;24.23;;;9.20;;
13079;SDS011;6606;49.154;9.280;2022-10-31T01:55:44;15.67;;;8.13;;
13079;SDS011;6606;49.154;9.280;2022-10-31T01:58:16;14.90;;;8.90;;
13079;SDS011;6606;49.154;9.280;2022-10-31T02:00:48;19.10;;;9.47;;
13079;SDS011;6606;49.154;9.280;2022-10-31T02:03:20;15.67;;;8.10;;
13079;SDS011;6606;49.154;9.280;2022-10-31T02:05:48;22.20;;;11.40;;
13079;SDS011;6606;49.154;9.280;2022-10-31T02:08:16;17.13;;;9.10;;
13079;SDS011;6606;49.154;9.280;2022-10-31T02:10:49;13.57;;;8.10;;
13079;SDS011;6606;49.154;9.280;2022-10-31T02:13:17;94.70;;;14.43;;
13079;SDS011;6606;49.154;9.280;2022-10-31T02:15:49;82.13;;;17.13;;
13079;SDS011;6606;49.154;9.280;2022-10-31T02:18:18;52.93;;;14.03;;
13079;SDS011;6606;49.154;9.280;2022-10-31T02:20:48;16.20;;;8.93;;
13079;SDS011;6606;49.154;9.280;2022-10-31T02:23:29;37.37;;;11.53;;
13079;SDS011;6606;49.154;9.280;2022-10-31T02:29:20;54.47;;;13.13;;
13079;SDS011;6606;49.154;9.280;2022-10-31T02:32:07;80.37;;;16.17;;
13079;SDS011;6606;49.154;9.280;2022-10-31T02:34:40;51.70;;;15.53;;
13079;SDS011;6606;49.154;9.280;2022-10-31T02:37:18;45.93;;;10.67;;
13079;SDS011;6606;49.154;9.280;2022-10-31T02:39:54;24.67;;;10.00;;
13079;SDS011;6606;49.154;9.280;2022-10-31T02:42:45;19.87;;;9.50;;
13079;SDS011;6606;49.154;9.280;2022-10-31T02:45:19;24.73;;;10.63;;
13079;SDS011;6606;49.154;9.280;2022-10-31T02:47:53;14.50;;;8.13;;
13079;SDS011;6606;49.154;9.280;2022-10-31T02:50:26;83.63;;;17.03;;
13079;SDS011;6606;49.154;9.280;2022-10-31T02:52:57;92.63;;;18.70;;
13079;SDS011;6606;49.154;9.280;2022-10-31T02:58:17;31.37;;;10.97;;
13079;SDS011;6606;49.154;9.280;2022-10-31T03:00:49;77.60;;;16.70;;
13079;SDS011;6606;49.154;9.280;2022-10-31T03:03:29;140.83;;;23.27;;
13079;SDS011;6606;49.154;9.280;2022-10-31T03:06:05;116.27;;;22.70;;
13079;SDS011;6606;49.154;9.280;2022-10-31T03:08:41;54.03;;;12.40;;
13079;SDS011;6606;49.154;9.280;2022-10-31T03:11:16;61.67;;;13.77;;
13079;SDS011;6606;49.154;9.280;2022-10-31T03:13:48;168.13;;;22.30;;
13079;SDS011;6606;49.154;9.280;2022-10-31T03:16:22;66.27;;;14.87;;
13079;SDS011;6606;49.154;9.280;2022-10-31T03:18:59;161.83;;;20.47;;
13079;SDS011;6606;49.154;9.280;2022-10-31T03:21:30;132.60;;;18.23;;
13079;SDS011;6606;49.154;9.280;2022-10-31T03:24:02;67.37;;;19.07;;
13079;SDS011;6606;49.154;9.280;2022-10-31T03:26:34;172.07;;;22.27;;
13079;SDS011;6606;49.154;9.280;2022-10-31T03:29:05;133.97;;;20.27;;
13079;SDS011;6606;49.154;9.280;2022-10-31T03:31:38;59.40;;;12.87;;
13079;SDS011;6606;49.154;9.280;2022-10-31T03:34:13;29.33;;;9.23;;
13079;SDS011;6606;49.154;9.280;2022-10-31T03:36:44;31.13;;;10.07;;
13079;SDS011;6606;49.154;9.280;2022-10-31T03:39:13;88.37;;;14.90;;
13079;SDS011;6606;49.154;9.280;2022-10-31T03:41:43;189.10;;;26.27;;
13079;SDS011;6606;49.154;9.280;2022-10-31T03:44:14;57.53;;;17.27;;
13079;SDS011;6606;49.154;9.280;2022-10-31T03:46:51;97.77;;;23.83;;
13079;SDS011;6606;49.154;9.280;2022-10-31T03:49:21;40.50;;;11.70;;
13079;SDS011;6606;49.154;9.280;2022-10-31T03:51:50;31.67;;;10.57;;
13079;SDS011;6606;49.154;9.280;2022-10-31T03:54:25;21.67;;;9.20;;
13079;SDS011;6606;49.154;9.280;2022-10-31T03:56:59;32.90;;;11.17;;
13079;SDS011;6606;49.154;9.280;2022-10-31T03:59:32;45.27;;;13.50;;
13079;SDS011;6606;49.154;9.280;2022-10-31T04:02:02;13.03;;;7.97;;
13079;SDS011;6606;49.154;9.280;2022-10-31T04:04:32;13.47;;;8.10;;
13079;SDS011;6606;49.154;9.280;2022-10-31T04:07:00;38.87;;;10.30;;
13079;SDS011;6606;49.154;9.280;2022-10-31T04:09:29;67.63;;;14.90;;
13079;SDS011;6606;49.154;9.280;2022-10-31T04:11:59;39.67;;;11.30;;
13079;SDS011;6606;49.154;9.280;2022-10-31T04:14:40;19.90;;;8.90;;
13079;SDS011;6606;49.154;9.280;2022-10-31T04:17:09;33.93;;;11.83;;
13079;SDS011;6606;49.154;9.280;2022-10-31T04:19:42;36.97;;;10.10;;
13079;SDS011;6606;49.154;9.280;2022-10-31T04:22:09;55.20;;;16.90;;
13079;SDS011;6606;49.154;9.280;2022-10-31T04:24:36;27.47;;;10.87;;
13079;SDS011;6606;49.154;9.280;2022-10-31T04:27:07;14.40;;;8.70;;
13079;SDS011;6606;49.154;9.280;2022-10-31T04:29:33;41.83;;;11.23;;
13079;SDS011;6606;49.154;9.280;2022-10-31T04:32:00;50.27;;;13.00;;
13079;SDS011;6606;49.154;9.280;2022-10-31T04:34:26;12.60;;;7.77;;
13079;SDS011;6606;49.154;9.280;2022-10-31T04:36:54;19.67;;;8.47;;
13079;SDS011;6606;49.154;9.280;2022-10-31T04:39:21;17.37;;;9.00;;
13079;SDS011;6606;49.154;9.280;2022-10-31T04:42:08;15.03;;;8.27;;
13079;SDS011;6606;49.154;9.280;2022-10-31T04:44:34;40.87;;;13.90;;
13079;SDS011;6606;49.154;9.280;2022-10-31T04:47:01;19.13;;;9.57;;
13079;SDS011;6606;49.154;9.280;2022-10-31T04:49:28;21.63;;;9.30;;
13079;SDS011;6606;49.154;9.280;2022-10-31T04:51:56;15.83;;;9.53;;
13079;SDS011;6606;49.154;9.280;2022-10-31T04:54:23;10.40;;;8.17;;
13079;SDS011;6606;49.154;9.280;2022-10-31T04:57:08;27.80;;;7.53;;
13079;SDS011;6606;49.154;9.280;2022-10-31T04:59:36;27.07;;;9.43;;
13079;SDS011;6606;49.154;9.280;2022-10-31T05:02:02;37.23;;;11.93;;
13079;SDS011;6606;49.154;9.280;2022-10-31T05:04:42;26.63;;;9.77;;
13079;SDS011;6606;49.154;9.280;2022-10-31T05:07:10;22.47;;;8.20;;
13079;SDS011;6606;49.154;9.280;2022-10-31T05:09:37;29.70;;;11.57;;
13079;SDS011;6606;49.154;9.280;2022-10-31T05:12:03;25.57;;;10.13;;
13079;SDS011;6606;49.154;9.280;2022-10-31T05:15:09;29.00;;;11.67;;
13079;SDS011;6606;49.154;9.280;2022-10-31T05:17:59;67.00;;;16.77;;
13079;SDS011;6606;49.154;9.280;2022-10-31T05:20:48;42.50;;;12.70;;
13079;SDS011;6606;49.154;9.280;2022-10-31T05:23:24;27.87;;;8.23;;
13079;SDS011;6606;49.154;9.280;2022-10-31T05:25:50;51.67;;;13.97;;
13079;SDS011;6606;49.154;9.280;2022-10-31T05:28:17;60.87;;;15.57;;
13079;SDS011;6606;49.154;9.280;2022-10-31T05:30:44;37.73;;;14.63;;
13079;SDS011;6606;49.154;9.280;2022-10-31T05:33:13;23.57;;;9.33;;
13079;SDS011;6606;49.154;9.280;2022-10-31T05:35:59;16.43;;;6.57;;
13079;SDS011;6606;49.154;9.280;2022-10-31T05:38:30;17.20;;;7.53;;
13079;SDS011;6606;49.154;9.280;2022-10-31T05:41:01;27.03;;;10.87;;
13079;SDS011;6606;49.154;9.280;2022-10-31T05:43:30;38.20;;;10.37;;
13079;SDS011;6606;49.154;9.280;2022-10-31T05:45:58;246.20;;;24.30;;
13079;SDS011;6606;49.154;9.280;2022-10-31T05:49:00;51.67;;;10.17;;
13079;SDS011;6606;49.154;9.280;2022-10-31T05:51:45;16.30;;;6.90;;
13079;SDS011;6606;49.154;9.280;2022-10-31T05:54:13;51.67;;;14.53;;
13079;SDS011;6606;49.154;9.280;2022-10-31T05:56:42;23.03;;;10.37;;
13079;SDS011;6606;49.154;9.280;2022-10-31T05:59:08;46.67;;;9.93;;
13079;SDS011;6606;49.154;9.280;2022-10-31T06:01:35;23.93;;;10.70;;
13079;SDS011;6606;49.154;9.280;2022-10-31T06:04:04;22.40;;;7.73;;
13079;SDS011;6606;49.154;9.280;2022-10-31T06:06:33;17.40;;;6.20;;
13079;SDS011;6606;49.154;9.280;2022-10-31T06:08:59;46.37;;;11.93;;
13079;SDS011;6606;49.154;9.280;2022-10-31T06:11:29;9.20;;;5.90;;
13079;SDS011;6606;49.154;9.280;2022-10-31T06:14:01;14.63;;;7.07;;
13079;SDS011;6606;49.154;9.280;2022-10-31T06:16:44;11.63;;;6.93;;
13079;SDS011;6606;49.154;9.280;2022-10-31T06:19:40;21.10;;;6.93;;
13079;SDS011;6606;49.154;9.280;2022-10-31T06:22:08;14.37;;;6.60;;
13079;SDS011;6606;49.154;9.280;2022-10-31T06:24:36;30.60;;;9.37;;
13079;SDS011;6606;49.154;9.280;2022-10-31T06:27:17;27.57;;;8.50;;
13079;SDS011;6606;49.154;9.280;2022-10-31T06:29:44;29.57;;;7.67;;
13079;SDS011;6606;49.154;9.280;2022-10-31T06:32:18;24.87;;;7.33;;
13079;SDS011;6606;49.154;9.280;2022-10-31T06:34:45;91.13;;;12.70;;
13079;SDS011;6606;49.154;9.280;2022-10-31T06:37:13;68.60;;;11.90;;
13079;SDS011;6606;49.154;9.280;2022-10-31T06:39:44;33.63;;;9.00;;
13079;SDS011;6606;49.154;9.280;2022-10-31T06:42:14;39.57;;;7.93;;
13079;SDS011;6606;49.154;9.280;2022-10-31T06:44:43;10.87;;;5.67;;
13079;SDS011;6606;49.154;9.280;2022-10-31T06:47:28;25.50;;;7.30;;
13079;SDS011;6606;49.154;9.280;2022-10-31T06:50:05;14.93;;;6.20;;
13079;SDS011;6606;49.154;9.280;2022-10-31T06:52:33;11.10;;;6.33;;
13079;SDS011;6606;49.154;9.280;2022-10-31T06:55:01;35.10;;;10.83;;
13079;SDS011;6606;49.154;9.280;2022-10-31T06:57:30;22.43;;;9.90;;
13079;SDS011;6606;49.154;9.280;2022-10-31T06:59:57;37.43;;;9.03;;
13079;SDS011;6606;49.154;9.280;2022-10-31T07:02:32;32.47;;;8.50;;
13079;SDS011;6606;49.154;9.280;2022-10-31T07:04:59;76.30;;;14.23;;
13079;SDS011;6606;49.154;9.280;2022-10-31T07:07:26;80.77;;;13.73;;
13079;SDS011;6606;49.154;9.280;2022-10-31T07:09:53;110.73;;;13.53;;
13079;SDS011;6606;49.154;9.280;2022-10-31T07:12:36;134.47;;;10.30;;
13079;SDS011;6606;49.154;9.280;2022-10-31T07:15:03;127.00;;;11.70;;
13079;SDS011;6606;49.154;9.280;2022-10-31T07:17:30;125.67;;;13.43;;
13079;SDS011;6606;49.154;9.280;2022-10-31T07:19:58;323.20;;;17.87;;
13079;SDS011;6606;49.154;9.280;2022-10-31T07:22:31;162.87;;;12.97;;
13079;SDS011;6606;49.154;9.280;2022-10-31T07:24:58;48.17;;;7.40;;
13079;SDS011;6606;49.154;9.280;2022-10-31T07:27:45;63.83;;;9.20;;
13079;SDS011;6606;49.154;9.280;2022-10-31T07:30:12;226.23;;;13.10;;
13079;SDS011;6606;49.154;9.280;2022-10-31T07:32:39;259.27;;;17.27;;
13079;SDS011;6606;49.154;9.280;2022-10-31T07:35:07;93.40;;;9.43;;
13079;SDS011;6606;49.154;9.280;2022-10-31T07:37:53;43.27;;;8.07;;
13079;SDS011;6606;49.154;9.280;2022-10-31T07:40:21;12.23;;;7.10;;
13079;SDS011;6606;49.154;9.280;2022-10-31T07:42:51;23.67;;;5.87;;
13079;SDS011;6606;49.154;9.280;2022-10-31T07:45:43;96.13;;;11.83;;
13079;SDS011;6606;49.154;9.280;2022-10-31T07:48:28;96.37;;;11.23;;
13079;SDS011;6606;49.154;9.280;2022-10-31T07:51:14;154.33;;;12.87;;
13079;SDS011;6606;49.154;9.280;2022-10-31T07:53:59;64.67;;;9.63;;
13079;SDS011;6606;49.154;9.280;2022-10-31T07:56:29;79.67;;;9.07;;
13079;SDS011;6606;49.154;9.280;2022-10-31T07:58:57;23.57;;;6.33;;
13079;SDS011;6606;49.154;9.280;2022-10-31T08:01:24;15.53;;;6.10;;
13079;SDS011;6606;49.154;9.280;2022-10-31T08:04:26;19.97;;;5.20;;
13079;SDS011;6606;49.154;9.280;2022-10-31T08:07:11;25.07;;;8.20;;
13079;SDS011;6606;49.154;9.280;2022-10-31T08:09:42;23.33;;;6.00;;
13079;SDS011;6606;49.154;9.280;2022-10-31T08:12:18;27.20;;;7.03;;
13079;SDS011;6606;49.154;9.280;2022-10-31T08:14:46;43.40;;;6.83;;
13079;SDS011;6606;49.154;9.280;2022-10-31T08:17:16;27.20;;;8.27;;
13079;SDS011;6606;49.154;9.280;2022-10-31T08:19:49;57.83;;;9.77;;
13079;SDS011;6606;49.154;9.280;2022-10-31T08:22:18;33.67;;;10.80;;
13079;SDS011;6606;49.154;9.280;2022-10-31T08:24:47;38.60;;;7.57;;
13079;SDS011;6606;49.154;9.280;2022-10-31T08:27:13;11.43;;;4.93;;
13079;SDS011;6606;49.154;9.280;2022-10-31T08:29:40;28.23;;;7.93;;
13079;SDS011;6606;49.154;9.280;2022-10-31T08:32:08;152.60;;;13.47;;
13079;SDS011;6606;49.154;9.280;2022-10-31T08:34:53;23.17;;;6.77;;
13079;SDS011;6606;49.154;9.280;2022-10-31T08:37:39;60.47;;;9.90;;
13079;SDS011;6606;49.154;9.280;2022-10-31T08:40:07;28.50;;;8.93;;
13079;SDS011;6606;49.154;9.280;2022-10-31T08:42:34;43.53;;;9.80;;
13079;SDS011;6606;49.154;9.280;2022-10-31T08:45:01;20.33;;;6.67;;
13079;SDS011;6606;49.154;9.280;2022-10-31T08:47:31;30.53;;;8.10;;
13079;SDS011;6606;49.154;9.280;2022-10-31T08:49:58;13.03;;;5.87;;
13079;SDS011;6606;49.154;9.280;2022-10-31T08:52:25;11.33;;;5.50;;
13079;SDS011;6606;49.154;9.280;2022-10-31T08:54:57;11.87;;;5.07;;
13079;SDS011;6606;49.154;9.280;2022-10-31T08:57:43;8.77;;;4.50;;
13079;SDS011;6606;49.154;9.280;2022-10-31T09:00:11;14.43;;;5.70;;
13079;SDS011;6606;49.154;9.280;2022-10-31T09:02:57;7.43;;;4.63;;
13079;SDS011;6606;49.154;9.280;2022-10-31T09:05:25;13.30;;;8.40;;
13079;SDS011;6606;49.154;9.280;2022-10-31T09:07:54;7.37;;;4.50;;
13079;SDS011;6606;49.154;9.280;2022-10-31T09:10:22;8.93;;;6.13;;
13079;SDS011;6606;49.154;9.280;2022-10-31T09:12:54;5.77;;;5.13;;
13079;SDS011;6606;49.154;9.280;2022-10-31T09:15:33;6.80;;;5.67;;
13079;SDS011;6606;49.154;9.280;2022-10-31T09:18:15;6.27;;;5.60;;
13079;SDS011;6606;49.154;9.280;2022-10-31T09:20:49;10.23;;;7.23;;
13079;SDS011;6606;49.154;9.280;2022-10-31T09:23:17;7.67;;;5.27;;
13079;SDS011;6606;49.154;9.280;2022-10-31T09:25:47;6.23;;;5.30;;
13079;SDS011;6606;49.154;9.280;2022-10-31T09:28:35;6.17;;;5.50;;
13079;SDS011;6606;49.154;9.280;2022-10-31T09:31:10;7.70;;;6.67;;
13079;SDS011;6606;49.154;9.280;2022-10-31T09:33:56;6.50;;;5.40;;
13079;SDS011;6606;49.154;9.280;2022-10-31T09:36:31;5.57;;;4.83;;
13079;SDS011;6606;49.154;9.280;2022-10-31T09:38:58;5.67;;;5.17;;
13079;SDS011;6606;49.154;9.280;2022-10-31T09:41:27;8.57;;;5.40;;
13079;SDS011;6606;49.154;9.280;2022-10-31T09:44:00;7.40;;;5.80;;
13079;SDS011;6606;49.154;9.280;2022-10-31T09:46:38;7.93;;;6.07;;
13079;SDS011;6606;49.154;9.280;2022-10-31T09:52:09;8.50;;;6.27;;
13079;SDS011;6606;49.154;9.280;2022-10-31T09:54:41;9.57;;;6.40;;
13079;SDS011;6606;49.154;9.280;2022-10-31T09:57:12;9.87;;;6.10;;
13079;SDS011;6606;49.154;9.280;2022-10-31T09:59:46;8.13;;;5.33;;
13079;SDS011;6606;49.154;9.280;2022-10-31T10:02:18;7.63;;;5.87;;
13079;SDS011;6606;49.154;9.280;2022-10-31T10:04:51;6.23;;;5.10;;
13079;SDS011;6606;49.154;9.280;2022-10-31T10:07:25;8.30;;;5.27;;
13079;SDS011;6606;49.154;9.280;2022-10-31T10:10:25;9.60;;;5.47;;
13079;SDS011;6606;49.154;9.280;2022-10-31T10:16:16;8.80;;;5.97;;
13079;SDS011;6606;49.154;9.280;2022-10-31T10:19:00;9.23;;;5.37;;
13079;SDS011;6606;49.154;9.280;2022-10-31T10:21:38;8.27;;;6.55;;
13079;SDS011;6606;49.154;9.280;2022-10-31T10:24:12;10.23;;;6.00;;
13079;SDS011;6606;49.154;9.280;2022-10-31T10:26:49;11.13;;;6.17;;
13079;SDS011;6606;49.154;9.280;2022-10-31T10:29:29;7.53;;;6.47;;
13079;SDS011;6606;49.154;9.280;2022-10-31T10:32:02;9.60;;;5.93;;
13079;SDS011;6606;49.154;9.280;2022-10-31T10:34:37;9.60;;;5.87;;
13079;SDS011;6606;49.154;9.280;2022-10-31T10:37:13;10.97;;;6.43;;
13079;SDS011;6606;49.154;9.280;2022-10-31T10:39:49;10.43;;;5.43;;
13079;SDS011;6606;49.154;9.280;2022-10-31T10:42:20;9.57;;;6.03;;
13079;SDS011;6606;49.154;9.280;2022-10-31T10:45:13;9.45;;;6.18;;
13079;SDS011;6606;49.154;9.280;2022-10-31T10:48:02;8.80;;;5.75;;
13079;SDS011;6606;49.154;9.280;2022-10-31T10:50:34;8.40;;;6.90;;
13079;SDS011;6606;49.154;9.280;2022-10-31T10:53:08;6.63;;;5.80;;
13079;SDS011;6606;49.154;9.280;2022-10-31T10:55:48;9.17;;;6.57;;
13079;SDS011;6606;49.154;9.280;2022-10-31T10:58:20;8.27;;;6.38;;
13079;SDS011;6606;49.154;9.280;2022-10-31T11:00:47;9.07;;;5.83;;
13079;SDS011;6606;49.154;9.280;2022-10-31T11:03:14;7.68;;;6.00;;
13079;SDS011;6606;49.154;9.280;2022-10-31T11:05:44;7.03;;;5.53;;
13079;SDS011;6606;49.154;9.280;2022-10-31T11:08:23;6.97;;;5.65;;
13079;SDS011;6606;49.154;9.280;2022-10-31T11:10:56;9.43;;;6.55;;
13079;SDS011;6606;49.154;9.280;2022-10-31T11:13:27;8.38;;;6.43;;
13079;SDS011;6606;49.154;9.280;2022-10-31T11:15:56;10.88;;;7.68;;
13079;SDS011;6606;49.154;9.280;2022-10-31T11:18:25;9.70;;;7.15;;
13079;SDS011;6606;49.154;9.280;2022-10-31T11:20:55;9.10;;;6.50;;
13079;SDS011;6606;49.154;9.280;2022-10-31T11:23:25;8.85;;;6.25;;
13079;SDS011;6606;49.154;9.280;2022-10-31T11:25:54;9.02;;;6.20;;
13079;SDS011;6606;49.154;9.280;2022-10-31T11:28:22;8.93;;;6.68;;
13079;SDS011;6606;49.154;9.280;2022-10-31T11:30:50;8.18;;;5.75;;
13079;SDS011;6606;49.154;9.280;2022-10-31T11:33:21;9.45;;;6.53;;
13079;SDS011;6606;49.154;9.280;2022-10-31T11:35:52;10.95;;;7.53;;
13079;SDS011;6606;49.154;9.280;2022-10-31T11:38:21;8.93;;;5.90;;
13079;SDS011;6606;49.154;9.280;2022-10-31T11:40:57;9.02;;;5.80;;
13079;SDS011;6606;49.154;9.280;2022-10-31T11:43:26;7.78;;;5.75;;
13079;SDS011;6606;49.154;9.280;2022-10-31T11:45:53;12.02;;;6.10;;
13079;SDS011;6606;49.154;9.280;2022-10-31T11:48:20;8.40;;;5.95;;
13079;SDS011;6606;49.154;9.280;2022-10-31T11:50:49;8.85;;;6.05;;
13079;SDS011;6606;49.154;9.280;2022-10-31T11:53:19;9.40;;;5.93;;
13079;SDS011;6606;49.154;9.280;2022-10-31T11:55:58;8.52;;;5.70;;
13079;SDS011;6606;49.154;9.280;2022-10-31T11:58:30;11.18;;;6.35;;
13079;SDS011;6606;49.154;9.280;2022-10-31T12:00:57;10.50;;;5.97;;
13079;SDS011;6606;49.154;9.280;2022-10-31T12:03:30;9.30;;;6.10;;
13079;SDS011;6606;49.154;9.280;2022-10-31T12:06:04;11.45;;;6.00;;
13079;SDS011;6606;49.154;9.280;2022-10-31T12:08:36;10.32;;;5.97;;
13079;SDS011;6606;49.154;9.280;2022-10-31T12:11:08;7.95;;;5.68;;
13079;SDS011;6606;49.154;9.280;2022-10-31T12:13:48;9.18;;;6.00;;
13079;SDS011;6606;49.154;9.280;2022-10-31T12:16:26;7.03;;;5.38;;
13079;SDS011;6606;49.154;9.280;2022-10-31T12:18:59;10.93;;;6.35;;
13079;SDS011;6606;49.154;9.280;2022-10-31T12:21:35;7.93;;;5.80;;
13079;SDS011;6606;49.154;9.280;2022-10-31T12:24:18;11.55;;;6.03;;
13079;SDS011;6606;49.154;9.280;2022-10-31T12:26:58;11.55;;;5.90;;
13079;SDS011;6606;49.154;9.280;2022-10-31T12:29:40;14.27;;;7.18;;
13079;SDS011;6606;49.154;9.280;2022-10-31T12:32:21;11.95;;;7.20;;
13079;SDS011;6606;49.154;9.280;2022-10-31T12:35:00;19.70;;;7.68;;
13079;SDS011;6606;49.154;9.280;2022-10-31T12:37:43;9.77;;;6.13;;
13079;SDS011;6606;49.154;9.280;2022-10-31T12:40:31;9.90;;;5.75;;
13079;SDS011;6606;49.154;9.280;2022-10-31T12:43:12;9.18;;;5.53;;
13079;SDS011;6606;49.154;9.280;2022-10-31T12:45:51;10.63;;;5.95;;
13079;SDS011;6606;49.154;9.280;2022-10-31T12:48:27;12.50;;;5.80;;
13079;SDS011;6606;49.154;9.280;2022-10-31T12:51:12;8.00;;;5.40;;
13079;SDS011;6606;49.154;9.280;2022-10-31T12:53:52;8.85;;;5.43;;
13079;SDS011;6606;49.154;9.280;2022-10-31T12:56:36;9.30;;;5.45;;
13079;SDS011;6606;49.154;9.280;2022-10-31T12:59:15;10.70;;;5.93;;
13079;SDS011;6606;49.154;9.280;2022-10-31T13:01:47;9.15;;;6.18;;
13079;SDS011;6606;49.154;9.280;2022-10-31T13:04:21;15.07;;;6.85;;
13079;SDS011;6606;49.154;9.280;2022-10-31T13:06:58;13.15;;;6.75;;
13079;SDS011;6606;49.154;9.280;2022-10-31T13:09:32;11.38;;;6.10;;
13079;SDS011;6606;49.154;9.280;2022-10-31T13:12:04;9.68;;;5.25;;
13079;SDS011;6606;49.154;9.280;2022-10-31T13:14:36;9.63;;;5.20;;
13079;SDS011;6606;49.154;9.280;2022-10-31T13:17:06;9.85;;;5.13;;
13079;SDS011;6606;49.154;9.280;2022-10-31T13:19:43;10.63;;;5.63;;
13079;SDS011;6606;49.154;9.280;2022-10-31T13:22:12;10.88;;;6.05;;
13079;SDS011;6606;49.154;9.280;2022-10-31T13:24:44;7.90;;;5.68;;
13079;SDS011;6606;49.154;9.280;2022-10-31T13:27:18;10.90;;;5.95;;
13079;SDS011;6606;49.154;9.280;2022-10-31T13:29:53;12.85;;;5.43;;
13079;SDS011;6606;49.154;9.280;2022-10-31T13:32:27;5.82;;;4.60;;
13079;SDS011;6606;49.154;9.280;2022-10-31T13:35:03;8.27;;;5.30;;
13079;SDS011;6606;49.154;9.280;2022-10-31T13:37:35;6.07;;;4.78;;
13079;SDS011;6606;49.154;9.280;2022-10-31T13:40:11;8.20;;;5.18;;
13079;SDS011;6606;49.154;9.280;2022-10-31T13:42:50;9.10;;;5.32;;
13079;SDS011;6606;49.154;9.280;2022-10-31T13:45:23;9.35;;;6.15;;
13079;SDS011;6606;49.154;9.280;2022-10-31T13:47:55;10.82;;;6.03;;
13079;SDS011;6606;49.154;9.280;2022-10-31T13:50:25;10.18;;;5.80;;
13079;SDS011;6606;49.154;9.280;2022-10-31T13:53:02;8.10;;;5.57;;
13079;SDS011;6606;49.154;9.280;2022-10-31T13:55:36;10.63;;;5.32;;
13079;SDS011;6606;49.154;9.280;2022-10-31T13:58:17;8.30;;;5.47;;
13079;SDS011;6606;49.154;9.280;2022-10-31T14:00:58;9.73;;;5.80;;
13079;SDS011;6606;49.154;9.280;2022-10-31T14:03:35;8.93;;;5.32;;
13079;SDS011;6606;49.154;9.280;2022-10-31T14:06:04;8.65;;;5.97;;
13079;SDS011;6606;49.154;9.280;2022-10-31T14:08:34;10.45;;;5.72;;
13079;SDS011;6606;49.154;9.280;2022-10-31T14:11:02;16.10;;;7.60;;
13079;SDS011;6606;49.154;9.280;2022-10-31T14:13:31;11.02;;;6.20;;
13079;SDS011;6606;49.154;9.280;2022-10-31T14:16:05;11.57;;;6.43;;
13079;SDS011;6606;49.154;9.280;2022-10-31T14:18:44;9.70;;;6.00;;
13079;SDS011;6606;49.154;9.280;2022-10-31T14:21:24;9.40;;;5.40;;
13079;SDS011;6606;49.154;9.280;2022-10-31T14:23:54;10.07;;;5.65;;
13079;SDS011;6606;49.154;9.280;2022-10-31T14:26:32;7.65;;;5.30;;
13079;SDS011;6606;49.154;9.280;2022-10-31T14:29:03;8.65;;;5.32;;
13079;SDS011;6606;49.154;9.280;2022-10-31T14:32:02;10.02;;;6.10;;
13079;SDS011;6606;49.154;9.280;2022-10-31T14:34:38;7.78;;;5.13;;
13079;SDS011;6606;49.154;9.280;2022-10-31T14:37:22;6.75;;;4.60;;
13079;SDS011;6606;49.154;9.280;2022-10-31T14:40:07;8.63;;;5.30;;
13079;SDS011;6606;49.154;9.280;2022-10-31T14:42:53;10.82;;;5.10;;
13079;SDS011;6606;49.154;9.280;2022-10-31T14:45:40;9.90;;;5.90;;
13079;SDS011;6606;49.154;9.280;2022-10-31T14:48:20;10.77;;;5.53;;
13079;SDS011;6606;49.154;9.280;2022-10-31T14:50:56;10.45;;;5.50;;
13079;SDS011;6606;49.154;9.280;2022-10-31T14:53:24;10.60;;;5.40;;
13079;SDS011;6606;49.154;9.280;2022-10-31T14:55:54;8.95;;;5.20;;
13079;SDS011;6606;49.154;9.280;2022-10-31T14:58:23;9.60;;;5.63;;
13079;SDS011;6606;49.154;9.280;2022-10-31T15:00:56;8.85;;;6.00;;
13079;SDS011;6606;49.154;9.280;2022-10-31T15:03:27;8.50;;;5.38;;
13079;SDS011;6606;49.154;9.280;2022-10-31T15:05:58;8.52;;;5.95;;
13079;SDS011;6606;49.154;9.280;2022-10-31T15:08:33;7.90;;;5.68;;
13079;SDS011;6606;49.154;9.280;2022-10-31T15:11:11;8.55;;;5.45;;
13079;SDS011;6606;49.154;9.280;2022-10-31T15:13:44;9.95;;;6.28;;
13079;SDS011;6606;49.154;9.280;2022-10-31T15:16:12;8.45;;;5.95;;
13079;SDS011;6606;49.154;9.280;2022-10-31T15:18:46;10.70;;;7.03;;
13079;SDS011;6606;49.154;9.280;2022-10-31T15:21:23;10.55;;;6.13;;
13079;SDS011;6606;49.154;9.280;2022-10-31T15:23:53;9.77;;;5.82;;
13079;SDS011;6606;49.154;9.280;2022-10-31T15:26:23;7.72;;;5.95;;
13079;SDS011;6606;49.154;9.280;2022-10-31T15:28:58;9.48;;;5.22;;
13079;SDS011;6606;49.154;9.280;2022-10-31T15:31:27;10.23;;;5.28;;
13079;SDS011;6606;49.154;9.280;2022-10-31T15:33:55;11.70;;;5.22;;
13079;SDS011;6606;49.154;9.280;2022-10-31T15:36:27;9.38;;;5.32;;